sensor_id;sensor_type;location;lat;lon;timestamp;P1;durP1;ratioP1;P2;durP2;ratioP2
21448;SDS011;10885;52.830;13.788;2022-09-16T04:59:46;12.88;;;3.72;;
21448;SDS011;10885;52.830;13.788;2022-09-16T05:05:07;6.95;;;3.38;;
21448;SDS011;10885;52.830;13.788;2022-09-16T05:10:28;8.02;;;3.88;;
21448;SDS011;10885;52.830;13.788;2022-09-16T05:15:49;6.25;;;2.72;;
21448;SDS011;10885;52.830;13.788;2022-09-16T05:21:12;5.82;;;2.70;;
21448;SDS011;10885;52.830;13.788;2022-09-16T05:26:35;7.82;;;2.67;;
21448;SDS011;10885;52.830;13.788;2022-09-16T05:31:58;10.18;;;2.63;;
21448;SDS011;10885;52.830;13.788;2022-09-16T05:37:20;9.43;;;2.47;;
21448;SDS011;10885;52.830;13.788;2022-09-16T05:42:41;12.02;;;3.33;;
21448;SDS011;10885;52.830;13.788;2022-09-16T05:48:02;9.90;;;3.42;;
21448;SDS011;10885;52.830;13.788;2022-09-16T05:53:23;6.32;;;2.95;;
21448;SDS011;10885;52.830;13.788;2022-09-16T05:58:45;6.57;;;2.67;;
21448;SDS011;10885;52.830;13.788;2022-09-16T06:04:07;10.05;;;2.83;;
21448;SDS011;10885;52.830;13.788;2022-09-16T06:09:31;5.47;;;2.17;;
21448;SDS011;10885;52.830;13.788;2022-09-16T06:20:12;8.85;;;3.05;;
21448;SDS011;10885;52.830;13.788;2022-09-16T06:25:34;9.35;;;2.55;;
21448;SDS011;10885;52.830;13.788;2022-09-16T06:36:27;4.00;;;2.10;;
21448;SDS011;10885;52.830;13.788;2022-09-16T06:41:50;9.10;;;2.03;;
21448;SDS011;10885;52.830;13.788;2022-09-16T06:47:18;5.68;;;2.42;;
21448;SDS011;10885;52.830;13.788;2022-09-16T06:58:00;4.97;;;2.03;;
21448;SDS011;10885;52.830;13.788;2022-09-16T07:08:42;8.07;;;1.65;;
21448;SDS011;10885;52.830;13.788;2022-09-16T07:14:03;6.75;;;1.52;;
21448;SDS011;10885;52.830;13.788;2022-09-16T07:24:45;6.57;;;1.97;;
21448;SDS011;10885;52.830;13.788;2022-09-16T07:30:06;4.70;;;1.70;;
21448;SDS011;10885;52.830;13.788;2022-09-16T07:35:29;9.13;;;1.75;;
21448;SDS011;10885;52.830;13.788;2022-09-16T07:46:10;3.47;;;1.35;;
21448;SDS011;10885;52.830;13.788;2022-09-16T07:51:34;7.68;;;2.05;;
21448;SDS011;10885;52.830;13.788;2022-09-16T07:56:55;2.40;;;1.13;;
21448;SDS011;10885;52.830;13.788;2022-09-16T08:02:16;7.13;;;1.52;;
21448;SDS011;10885;52.830;13.788;2022-09-16T08:07:37;6.85;;;1.45;;
21448;SDS011;10885;52.830;13.788;2022-09-16T08:12:58;4.40;;;1.58;;
21448;SDS011;10885;52.830;13.788;2022-09-16T08:18:19;5.13;;;1.40;;
21448;SDS011;10885;52.830;13.788;2022-09-16T08:23:40;2.47;;;1.17;;
21448;SDS011;10885;52.830;13.788;2022-09-16T08:29:02;5.75;;;1.25;;
21448;SDS011;10885;52.830;13.788;2022-09-16T08:34:30;4.43;;;1.40;;
21448;SDS011;10885;52.830;13.788;2022-09-16T08:39:51;6.93;;;1.70;;
21448;SDS011;10885;52.830;13.788;2022-09-16T08:45:21;6.13;;;1.52;;
21448;SDS011;10885;52.830;13.788;2022-09-16T08:50:46;3.15;;;1.50;;
21448;SDS011;10885;52.830;13.788;2022-09-16T08:56:13;5.60;;;1.75;;
21448;SDS011;10885;52.830;13.788;2022-09-16T09:01:40;3.92;;;1.27;;
21448;SDS011;10885;52.830;13.788;2022-09-16T09:35:37;8.32;;;1.70;;
21448;SDS011;10885;52.830;13.788;2022-09-16T09:41:08;4.93;;;1.40;;
21448;SDS011;10885;52.830;13.788;2022-09-16T09:46:43;6.53;;;1.75;;
21448;SDS011;10885;52.830;13.788;2022-09-16T09:52:16;4.50;;;1.45;;
21448;SDS011;10885;52.830;13.788;2022-09-16T09:57:46;5.93;;;1.98;;
21448;SDS011;10885;52.830;13.788;2022-09-16T10:03:21;12.13;;;1.75;;
21448;SDS011;10885;52.830;13.788;2022-09-16T10:08:45;5.20;;;1.50;;
21448;SDS011;10885;52.830;13.788;2022-09-16T10:14:18;3.72;;;1.63;;
21448;SDS011;10885;52.830;13.788;2022-09-16T10:20:44;7.00;;;1.33;;
21448;SDS011;10885;52.830;13.788;2022-09-16T10:25:48;5.05;;;1.45;;
21448;SDS011;10885;52.830;13.788;2022-09-16T10:31:09;5.95;;;1.42;;
21448;SDS011;10885;52.830;13.788;2022-09-16T10:36:32;9.13;;;1.65;;
21448;SDS011;10885;52.830;13.788;2022-09-16T10:41:54;6.30;;;1.58;;
21448;SDS011;10885;52.830;13.788;2022-09-16T10:47:24;4.10;;;1.35;;
21448;SDS011;10885;52.830;13.788;2022-09-16T10:52:48;8.85;;;1.73;;
21448;SDS011;10885;52.830;13.788;2022-09-16T10:58:15;7.93;;;1.75;;
21448;SDS011;10885;52.830;13.788;2022-09-16T11:09:25;7.33;;;1.53;;
21448;SDS011;10885;52.830;13.788;2022-09-16T11:42:51;5.20;;;1.50;;
21448;SDS011;10885;52.830;13.788;2022-09-16T11:59:37;5.35;;;1.48;;
21448;SDS011;10885;52.830;13.788;2022-09-16T12:05:16;3.63;;;1.10;;
21448;SDS011;10885;52.830;13.788;2022-09-16T12:10:46;3.75;;;1.30;;
21448;SDS011;10885;52.830;13.788;2022-09-16T12:16:15;12.13;;;1.67;;
21448;SDS011;10885;52.830;13.788;2022-09-16T12:21:41;5.43;;;1.15;;
21448;SDS011;10885;52.830;13.788;2022-09-16T12:32:44;8.20;;;1.38;;
21448;SDS011;10885;52.830;13.788;2022-09-16T12:38:11;4.85;;;1.25;;
21448;SDS011;10885;52.830;13.788;2022-09-16T13:00:38;4.80;;;1.25;;
21448;SDS011;10885;52.830;13.788;2022-09-16T13:06:13;8.85;;;1.10;;
21448;SDS011;10885;52.830;13.788;2022-09-16T13:11:50;5.00;;;1.10;;
21448;SDS011;10885;52.830;13.788;2022-09-16T13:17:39;3.22;;;1.00;;
21448;SDS011;10885;52.830;13.788;2022-09-16T13:39:28;4.03;;;0.90;;
21448;SDS011;10885;52.830;13.788;2022-09-16T13:44:52;4.00;;;1.20;;
21448;SDS011;10885;52.830;13.788;2022-09-16T13:50:13;7.28;;;1.23;;
21448;SDS011;10885;52.830;13.788;2022-09-16T13:55:40;3.92;;;1.25;;
21448;SDS011;10885;52.830;13.788;2022-09-16T14:01:10;3.13;;;0.90;;
21448;SDS011;10885;52.830;13.788;2022-09-16T14:06:43;3.67;;;1.15;;
21448;SDS011;10885;52.830;13.788;2022-09-16T14:12:26;5.25;;;1.10;;
21448;SDS011;10885;52.830;13.788;2022-09-16T14:17:57;5.30;;;1.08;;
21448;SDS011;10885;52.830;13.788;2022-09-16T14:23:22;4.50;;;1.30;;
21448;SDS011;10885;52.830;13.788;2022-09-16T14:28:44;3.72;;;1.00;;
21448;SDS011;10885;52.830;13.788;2022-09-16T14:34:05;2.15;;;0.90;;
21448;SDS011;10885;52.830;13.788;2022-09-16T14:39:30;3.22;;;0.90;;
21448;SDS011;10885;52.830;13.788;2022-09-16T14:44:52;3.85;;;0.98;;
21448;SDS011;10885;52.830;13.788;2022-09-16T14:50:25;1.90;;;0.70;;
21448;SDS011;10885;52.830;13.788;2022-09-16T14:55:50;1.60;;;0.85;;
21448;SDS011;10885;52.830;13.788;2022-09-16T15:01:13;2.15;;;1.05;;
21448;SDS011;10885;52.830;13.788;2022-09-16T15:06:40;5.40;;;1.17;;
21448;SDS011;10885;52.830;13.788;2022-09-16T15:12:15;3.10;;;1.20;;
21448;SDS011;10885;52.830;13.788;2022-09-16T15:17:41;4.28;;;1.42;;
21448;SDS011;10885;52.830;13.788;2022-09-16T15:23:02;2.47;;;0.90;;
21448;SDS011;10885;52.830;13.788;2022-09-16T15:28:30;1.75;;;1.00;;
21448;SDS011;10885;52.830;13.788;2022-09-16T15:33:51;2.90;;;1.15;;
21448;SDS011;10885;52.830;13.788;2022-09-16T15:44:52;6.95;;;1.20;;
21448;SDS011;10885;52.830;13.788;2022-09-16T15:50:17;4.40;;;1.40;;
21448;SDS011;10885;52.830;13.788;2022-09-16T16:07:00;7.15;;;1.88;;
21448;SDS011;10885;52.830;13.788;2022-09-16T16:12:25;6.50;;;1.55;;
21448;SDS011;10885;52.830;13.788;2022-09-16T16:17:46;7.45;;;1.60;;
21448;SDS011;10885;52.830;13.788;2022-09-16T16:23:09;5.07;;;1.40;;
21448;SDS011;10885;52.830;13.788;2022-09-16T16:28:32;6.60;;;1.50;;
21448;SDS011;10885;52.830;13.788;2022-09-16T16:33:54;4.03;;;0.98;;
21448;SDS011;10885;52.830;13.788;2022-09-16T16:44:36;12.57;;;1.40;;
21448;SDS011;10885;52.830;13.788;2022-09-16T16:55:18;3.00;;;1.15;;
21448;SDS011;10885;52.830;13.788;2022-09-16T17:00:39;5.15;;;1.35;;
21448;SDS011;10885;52.830;13.788;2022-09-16T17:11:20;5.15;;;1.30;;
21448;SDS011;10885;52.830;13.788;2022-09-16T17:16:42;7.30;;;1.10;;
21448;SDS011;10885;52.830;13.788;2022-09-16T17:22:06;5.25;;;1.55;;
21448;SDS011;10885;52.830;13.788;2022-09-16T17:27:27;9.80;;;1.40;;
21448;SDS011;10885;52.830;13.788;2022-09-16T17:32:49;7.05;;;1.20;;
21448;SDS011;10885;52.830;13.788;2022-09-16T17:38:09;7.28;;;1.80;;
21448;SDS011;10885;52.830;13.788;2022-09-16T17:43:30;7.00;;;1.27;;
21448;SDS011;10885;52.830;13.788;2022-09-16T17:48:53;8.27;;;1.52;;
21448;SDS011;10885;52.830;13.788;2022-09-16T17:54:19;9.63;;;1.55;;
21448;SDS011;10885;52.830;13.788;2022-09-16T17:59:41;7.88;;;1.45;;
21448;SDS011;10885;52.830;13.788;2022-09-16T18:05:02;3.35;;;1.20;;
21448;SDS011;10885;52.830;13.788;2022-09-16T18:10:23;5.85;;;1.92;;
21448;SDS011;10885;52.830;13.788;2022-09-16T18:15:44;7.80;;;1.90;;
21448;SDS011;10885;52.830;13.788;2022-09-16T18:21:07;7.10;;;1.67;;
21448;SDS011;10885;52.830;13.788;2022-09-16T18:26:30;13.82;;;1.70;;
21448;SDS011;10885;52.830;13.788;2022-09-16T18:31:51;5.40;;;1.60;;
21448;SDS011;10885;52.830;13.788;2022-09-16T18:37:14;7.85;;;2.22;;
21448;SDS011;10885;52.830;13.788;2022-09-16T18:42:35;6.78;;;2.08;;
21448;SDS011;10885;52.830;13.788;2022-09-16T18:53:17;5.40;;;1.27;;
21448;SDS011;10885;52.830;13.788;2022-09-16T19:03:59;5.40;;;1.40;;
21448;SDS011;10885;52.830;13.788;2022-09-16T19:09:22;6.72;;;1.35;;
21448;SDS011;10885;52.830;13.788;2022-09-16T19:14:43;10.23;;;1.48;;
21448;SDS011;10885;52.830;13.788;2022-09-16T19:20:05;5.18;;;1.10;;
21448;SDS011;10885;52.830;13.788;2022-09-16T19:30:46;9.40;;;1.50;;
21448;SDS011;10885;52.830;13.788;2022-09-16T19:41:34;4.85;;;1.17;;
21448;SDS011;10885;52.830;13.788;2022-09-16T19:46:56;6.40;;;1.65;;
21448;SDS011;10885;52.830;13.788;2022-09-16T19:52:17;5.88;;;1.33;;
21448;SDS011;10885;52.830;13.788;2022-09-16T19:57:38;7.93;;;1.45;;
21448;SDS011;10885;52.830;13.788;2022-09-16T20:02:59;7.57;;;1.40;;
21448;SDS011;10885;52.830;13.788;2022-09-16T20:08:20;5.00;;;1.42;;
21448;SDS011;10885;52.830;13.788;2022-09-16T20:13:51;5.53;;;1.27;;
21448;SDS011;10885;52.830;13.788;2022-09-16T20:19:14;5.45;;;1.40;;
21448;SDS011;10885;52.830;13.788;2022-09-16T20:24:37;4.13;;;1.10;;
21448;SDS011;10885;52.830;13.788;2022-09-16T20:29:57;8.82;;;1.55;;
21448;SDS011;10885;52.830;13.788;2022-09-16T20:35:18;8.85;;;1.67;;
21448;SDS011;10885;52.830;13.788;2022-09-16T20:46:03;6.93;;;1.20;;
21448;SDS011;10885;52.830;13.788;2022-09-16T20:51:29;4.30;;;1.27;;
21448;SDS011;10885;52.830;13.788;2022-09-16T20:56:52;2.97;;;1.20;;
21448;SDS011;10885;52.830;13.788;2022-09-16T21:02:13;3.60;;;1.27;;
21448;SDS011;10885;52.830;13.788;2022-09-16T21:07:34;3.80;;;1.33;;
21448;SDS011;10885;52.830;13.788;2022-09-16T21:23:38;5.22;;;1.60;;
21448;SDS011;10885;52.830;13.788;2022-09-16T21:29:00;10.27;;;1.85;;
21448;SDS011;10885;52.830;13.788;2022-09-16T21:34:23;5.20;;;1.27;;
21448;SDS011;10885;52.830;13.788;2022-09-16T21:39:44;4.72;;;1.20;;
